Time;durP1;ratioP1;P1;durP2;ratioP2;P2;SDS_P1;SDS_P2;PMS_P1;PMS_P2;Temp;Humidity;BMP_temperature;BMP_pressure;BME280_temperature;BME280_humidity;BME280_pressure;Samples;Min_cycle;Max_cycle;Signal;HPM_P1;HPM_P2
2023/03/28 00:06:44;;;;;;;5.90;1.07;;;;;;;1.11;49.70;101476.81;19906765;29;20224;-86
2023/03/28 00:16:46;;;;;;;9.03;1.70;;;;;;;1.24;49.62;101488.47;19923564;29;20711;-87
2023/03/28 00:26:53;;;;;;;6.13;1.93;;;;;;;1.62;49.02;101487.72;19915891;29;20228;-85
2023/03/28 00:36:55;;;;;;;5.33;1.37;;;;;;;1.18;49.94;101496.94;19908539;29;20209;-85
2023/03/28 00:46:58;;;;;;;2.20;1.00;;;;;;;1.03;49.76;101491.94;19910711;29;20220;-85
2023/03/28 00:57:01;;;;;;;5.73;1.63;;;;;;;1.58;48.58;101494.03;19908953;29;20204;-86
2023/03/28 01:07:04;;;;;;;6.57;1.27;;;;;;;1.26;49.74;101499.31;19907078;29;20228;-85
2023/03/28 01:17:10;;;;;;;5.63;1.27;;;;;;;1.07;50.32;101483.94;19931753;29;20223;-85
2023/03/28 01:27:37;;;;;;;3.80;1.17;;;;;;;0.88;50.69;101486.09;19964722;29;20265;-86
2023/03/28 01:37:45;;;;;;;8.53;2.00;;;;;;;0.84;51.14;101494.09;19957998;29;20486;-86
2023/03/28 01:48:03;;;;;;;8.40;1.70;;;;;;;0.63;50.92;101503.97;19981296;29;20220;-85
2023/03/28 01:58:22;;;;;;;7.20;1.87;;;;;;;0.65;51.71;101503.72;19968359;29;20244;-85
2023/03/28 02:08:33;;;;;;;5.90;1.17;;;;;;;0.80;51.14;101492.91;19945915;29;20228;-85
2023/03/28 02:18:56;;;;;;;7.60;1.20;;;;;;;0.30;52.08;101482.47;19961613;29;20258;-85
2023/03/28 02:29:14;;;;;;;5.23;1.40;;;;;;;0.83;51.40;101484.06;19959840;29;20231;-86
2023/03/28 02:40:08;;;;;;;9.90;1.80;;;;;;;0.91;50.72;101469.75;19976885;29;20208;-87
2023/03/28 02:50:11;;;;;;;10.07;1.93;;;;;;;0.67;51.75;101466.25;19984523;29;20207;-86
2023/03/28 03:00:15;;;;;;;5.03;2.20;;;;;;;0.40;52.85;101470.72;19977016;29;20633;-87
2023/03/28 03:10:20;;;;;;;10.73;2.77;;;;;;;0.55;51.96;101459.06;19949794;29;20273;-87
2023/03/28 03:20:25;;;;;;;11.57;1.97;;;;;;;0.63;51.47;101461.44;19958751;29;20293;-89
2023/03/28 03:30:27;;;;;;;7.03;2.37;;;;;;;0.44;52.89;101459.97;19965981;29;20200;-86
2023/03/28 03:40:44;;;;;;;5.90;2.50;;;;;;;-0.17;54.54;101462.25;19960779;29;20255;-85
2023/03/28 03:50:48;;;;;;;7.13;2.43;;;;;;;-0.07;53.48;101472.75;19965532;29;20618;-86
2023/03/28 04:00:50;;;;;;;9.63;2.63;;;;;;;0.49;52.41;101476.72;19951435;29;20698;-87
2023/03/28 04:11:10;;;;;;;9.33;3.37;;;;;;;0.07;53.64;101490.00;19951956;29;20230;-87
2023/03/28 04:21:18;;;;;;;9.07;3.60;;;;;;;0.69;51.83;101507.69;19962819;29;20284;-87
2023/03/28 04:31:22;;;;;;;8.50;3.60;;;;;;;0.14;53.36;101508.22;19964918;29;20207;-87
2023/03/28 04:41:45;;;;;;;9.50;3.03;;;;;;;0.19;52.63;101521.38;19969603;29;20830;-86
2023/03/28 04:52:19;;;;;;;7.17;2.93;;;;;;;0.12;53.51;101521.47;19964253;29;20249;-87
2023/03/28 05:02:22;;;;;;;12.53;3.43;;;;;;;0.01;55.69;101527.91;19982524;29;20227;-86
2023/03/28 05:12:39;;;;;;;11.23;3.67;;;;;;;-0.29;55.13;101541.88;19958628;29;20207;-85
2023/03/28 05:22:42;;;;;;;9.17;3.50;;;;;;;-0.02;53.89;101541.41;19980943;29;20697;-85
2023/03/28 05:32:44;;;;;;;9.60;3.73;;;;;;;0.39;52.95;101554.28;19992453;29;20207;-86
2023/03/28 05:42:46;;;;;;;8.07;3.03;;;;;;;-0.06;53.86;101552.19;19962140;29;20245;-86
2023/03/28 05:52:53;;;;;;;9.27;3.40;;;;;;;0.17;53.79;101554.94;19951834;29;20276;-86
2023/03/28 06:02:55;;;;;;;10.07;3.60;;;;;;;0.16;53.24;101552.41;19957232;29;20546;-86
2023/03/28 06:13:06;;;;;;;8.40;3.50;;;;;;;0.10;54.10;101561.69;19931571;29;20200;-87
2023/03/28 06:23:08;;;;;;;10.73;3.57;;;;;;;0.10;53.63;101579.19;19960961;29;20228;-86
2023/03/28 06:33:11;;;;;;;9.17;3.30;;;;;;;0.80;52.58;101576.28;19944987;29;20203;-86
2023/03/28 06:43:13;;;;;;;8.00;3.80;;;;;;;0.34;52.70;101579.19;19962960;29;20228;-86
2023/03/28 06:53:20;;;;;;;5.67;3.40;;;;;;;0.79;51.60;101574.59;19931010;29;20601;-87
2023/03/28 07:03:23;;;;;;;10.20;3.67;;;;;;;1.03;51.63;101595.66;19957372;29;20300;-87
2023/03/28 07:13:25;;;;;;;8.80;3.60;;;;;;;0.95;52.32;101596.06;19950520;29;20207;-87
2023/03/28 07:23:38;;;;;;;8.87;3.73;;;;;;;1.28;51.15;101603.69;19954039;29;20517;-86
2023/03/28 07:33:41;;;;;;;6.87;3.40;;;;;;;1.95;50.39;101602.94;19931114;29;20204;-88
2023/03/28 07:43:45;;;;;;;9.70;3.93;;;;;;;1.54;51.22;101618.91;19954395;29;20218;-87
2023/03/28 07:53:47;;;;;;;7.07;3.23;;;;;;;2.47;47.75;101611.81;19984422;29;20515;-87
2023/03/28 08:03:50;;;;;;;10.17;3.67;;;;;;;2.08;49.40;101613.72;19960123;29;20228;-87
2023/03/28 08:13:53;;;;;;;14.70;4.03;;;;;;;2.38;49.60;101608.63;19935300;29;20274;-87
2023/03/28 08:23:57;;;;;;;8.30;2.53;;;;;;;2.42;47.65;101614.53;19956863;29;20308;-86
2023/03/28 08:34:06;;;;;;;8.03;2.00;;;;;;;3.39;44.99;101603.50;19969305;29;20685;-87
2023/03/28 08:44:30;;;;;;;6.90;2.00;;;;;;;4.06;43.64;101600.22;19970458;29;20482;-87
2023/03/28 08:54:39;;;;;;;9.53;1.20;;;;;;;4.01;42.43;101604.91;19981617;29;20256;-86
2023/03/28 09:04:43;;;;;;;4.43;1.00;;;;;;;4.07;40.32;101603.84;19967333;29;20705;-87
2023/03/28 09:15:04;;;;;;;5.80;1.20;;;;;;;3.19;43.27;101620.03;19968443;29;20211;-87
2023/03/28 09:25:44;;;;;;;8.13;1.87;;;;;;;4.11;40.89;101600.22;19920619;29;20264;-86
2023/03/28 09:35:50;;;;;;;4.97;1.00;;;;;;;3.66;40.26;101583.94;19912083;29;20683;-85
2023/03/28 09:45:59;;;;;;;4.90;0.90;;;;;;;4.10;39.89;101595.78;19928936;29;20225;-85
2023/03/28 09:56:37;;;;;;;6.70;1.13;;;;;;;4.49;38.73;101590.75;19951565;29;20207;-87
2023/03/28 10:06:49;;;;;;;4.87;0.60;;;;;;;4.90;38.22;101579.75;19917436;29;20239;-86
2023/03/28 10:16:51;;;;;;;4.43;1.00;;;;;;;4.29;38.98;101573.84;19927016;29;20614;-86
2023/03/28 10:27:22;;;;;;;3.53;0.40;;;;;;;3.84;37.38;101566.81;19960236;29;20848;-87
2023/03/28 10:37:31;;;;;;;1.97;0.40;;;;;;;4.33;36.34;101563.81;19947391;29;20666;-86
2023/03/28 10:48:15;;;;;;;1.30;0.33;;;;;;;4.51;36.01;101552.16;19930164;29;20223;-85
2023/03/28 10:58:45;;;;;;;2.50;0.50;;;;;;;5.15;33.80;101537.84;19960284;29;20674;-88
2023/03/28 11:09:03;;;;;;;4.17;0.70;;;;;;;5.26;34.66;101525.56;19960142;29;20293;-87
2023/03/28 11:19:37;;;;;;;3.50;0.77;;;;;;;5.76;33.99;101507.13;19976448;29;20240;-87
2023/03/28 11:29:48;;;;;;;6.83;0.87;;;;;;;5.05;34.76;101500.59;19957389;29;20224;-87
2023/03/28 11:40:00;;;;;;;3.70;0.80;;;;;;;5.30;34.72;101473.47;19970838;29;20323;-88
2023/03/28 11:50:13;;;;;;;3.30;0.70;;;;;;;5.93;33.64;101465.59;19954734;29;20537;-88
2023/03/28 12:01:17;;;;;;;3.00;0.50;;;;;;;6.24;32.90;101443.09;19972131;29;20281;-86
2023/03/28 12:11:26;;;;;;;2.87;1.00;;;;;;;5.86;32.49;101413.78;19986969;29;20637;-89
2023/03/28 12:21:44;;;;;;;2.50;0.60;;;;;;;5.91;30.79;101392.22;19968798;29;20227;-88
2023/03/28 12:31:59;;;;;;;3.83;0.63;;;;;;;6.05;33.03;101378.44;19983868;29;20349;-88
2023/03/28 12:42:07;;;;;;;1.80;0.50;;;;;;;6.17;31.45;101369.69;19963861;29;20274;-87
2023/03/28 12:52:24;;;;;;;3.03;0.77;;;;;;;5.67;32.71;101363.13;19962695;29;20271;-88
2023/03/28 13:02:38;;;;;;;4.40;0.90;;;;;;;6.66;29.90;101339.69;19962081;29;20216;-88
2023/03/28 13:12:51;;;;;;;5.13;0.93;;;;;;;7.09;30.09;101331.47;19998397;29;20195;-87
2023/03/28 13:23:00;;;;;;;1.30;0.70;;;;;;;6.68;30.32;101326.19;19945831;29;20531;-87
2023/03/28 13:33:25;;;;;;;2.10;0.50;;;;;;;6.75;29.38;101291.34;19947385;29;20192;-88
2023/03/28 13:43:43;;;;;;;2.97;0.40;;;;;;;6.43;30.35;101261.00;19960752;29;20235;-86
2023/03/28 13:53:49;;;;;;;3.17;0.53;;;;;;;6.21;29.85;101258.59;19942385;29;20255;-86
2023/03/28 14:03:53;;;;;;;1.20;0.40;;;;;;;6.86;28.45;101237.63;19984270;29;20223;-86
2023/03/28 14:14:03;;;;;;;1.67;0.93;;;;;;;7.33;29.79;101224.78;19959890;29;20601;-86
2023/03/28 14:24:20;;;;;;;2.43;0.70;;;;;;;6.45;29.95;101230.69;19946183;29;20236;-88
2023/03/28 14:34:37;;;;;;;4.17;0.60;;;;;;;6.02;30.41;101194.84;19975842;29;20199;-85
2023/03/28 14:44:44;;;;;;;0.70;0.40;;;;;;;6.37;29.49;101184.47;19936707;29;20296;-85
2023/03/28 14:54:48;;;;;;;1.27;0.40;;;;;;;6.48;29.86;101174.81;19927029;29;20208;-86
2023/03/28 15:04:52;;;;;;;2.93;0.80;;;;;;;7.37;29.56;101155.63;19938268;29;20563;-87
2023/03/28 15:14:54;;;;;;;2.67;0.80;;;;;;;7.55;28.62;101125.88;19936289;29;20555;-89
2023/03/28 15:24:58;;;;;;;3.13;0.83;;;;;;;7.03;29.28;101108.03;19915866;29;20299;-86
2023/03/28 15:35:39;;;;;;;4.07;1.53;;;;;;;6.97;30.03;101086.78;19944069;29;20264;-86
2023/03/28 15:45:42;;;;;;;1.63;0.80;;;;;;;6.52;29.84;101063.72;19943896;29;20224;-85
2023/03/28 15:55:49;;;;;;;2.93;0.60;;;;;;;6.44;28.43;101061.56;19930836;29;20205;-87
2023/03/28 16:05:57;;;;;;;1.77;0.97;;;;;;;6.68;29.15;101056.84;19941507;29;20514;-83
2023/03/28 16:16:20;;;;;;;4.33;1.13;;;;;;;6.65;29.42;101046.19;19937413;29;20200;-86
2023/03/28 16:26:40;;;;;;;1.83;0.63;;;;;;;6.67;30.04;101032.72;19923226;29;20289;-87
2023/03/28 16:36:50;;;;;;;1.63;1.00;;;;;;;6.86;29.72;101017.88;19949170;29;20549;-85
2023/03/28 16:46:57;;;;;;;1.43;0.70;;;;;;;7.03;29.16;101007.81;19929803;29;20327;-86
2023/03/28 16:57:00;;;;;;;3.77;1.30;;;;;;;7.14;30.67;100994.47;19951761;29;20232;-86
2023/03/28 17:07:03;;;;;;;2.50;0.93;;;;;;;6.70;30.79;100986.41;19931856;29;20272;-86
2023/03/28 17:17:06;;;;;;;3.27;1.30;;;;;;;6.62;32.22;100987.88;19954875;29;20216;-88
2023/03/28 17:27:08;;;;;;;3.80;1.13;;;;;;;6.47;32.45;100985.22;19935994;29;20220;-86
2023/03/28 17:37:12;;;;;;;4.90;3.77;;;;;;;6.95;32.24;100973.97;19957821;29;20264;-87
2023/03/28 17:47:14;;;;;;;2.00;0.87;;;;;;;6.49;32.54;100966.13;19949697;29;20547;-86
2023/03/28 17:57:17;;;;;;;2.67;0.80;;;;;;;6.42;31.38;100965.66;19963514;29;20229;-87
2023/03/28 18:07:19;;;;;;;4.60;1.47;;;;;;;5.96;33.23;100966.16;19957266;29;20224;-88
2023/03/28 18:17:23;;;;;;;2.30;0.70;;;;;;;6.16;34.26;100964.28;19905553;29;1097377;-87
2023/03/28 18:27:25;;;;;;;2.43;1.23;;;;;;;6.50;33.89;100947.34;19933742;29;20618;-86
2023/03/28 18:37:28;;;;;;;3.67;1.07;;;;;;;6.38;33.51;100937.38;19966710;29;20204;-86
2023/03/28 18:47:31;;;;;;;3.43;0.80;;;;;;;6.83;32.57;100939.91;19943745;29;20232;-87
2023/03/28 18:57:34;;;;;;;5.97;2.10;;;;;;;6.77;33.30;100918.66;19949057;29;20196;-86
2023/03/28 19:07:39;;;;;;;2.80;1.20;;;;;;;6.16;33.84;100911.03;19960592;29;20232;-88
2023/03/28 19:17:42;;;;;;;5.17;1.10;;;;;;;5.79;34.65;100908.94;19939197;29;20228;-86
2023/03/28 19:27:44;;;;;;;1.33;0.77;;;;;;;5.82;34.52;100903.53;19945019;29;20308;-86
2023/03/28 19:37:46;;;;;;;3.80;1.10;;;;;;;5.79;34.01;100901.38;19942767;29;20249;-87
2023/03/28 19:47:48;;;;;;;5.80;1.80;;;;;;;4.56;36.46;100945.38;19943259;29;20725;-86
2023/03/28 19:57:55;;;;;;;6.33;2.00;;;;;;;4.53;42.91;100942.31;19951078;29;20204;-85
2023/03/28 20:08:01;;;;;;;3.57;1.43;;;;;;;4.79;43.09;100959.78;19938878;29;20220;-87
2023/03/28 20:18:08;;;;;;;2.43;1.27;;;;;;;4.25;46.50;100952.22;19959332;29;20441;-86
2023/03/28 20:28:11;;;;;;;3.97;1.70;;;;;;;4.15;48.47;100929.91;19963608;29;20223;-84
2023/03/28 20:38:13;;;;;;;4.13;1.50;;;;;;;4.26;49.72;100937.13;19965391;29;20229;-85
2023/03/28 20:48:15;;;;;;;3.00;1.40;;;;;;;4.63;48.80;100930.25;19955762;29;20263;-86
2023/03/28 20:58:18;;;;;;;3.27;1.47;;;;;;;4.30;50.26;100932.63;19958439;29;20257;-84
2023/03/28 21:08:20;;;;;;;5.10;1.70;;;;;;;3.86;52.81;100924.91;19968640;29;20659;-85
2023/03/28 21:18:23;;;;;;;2.07;1.70;;;;;;;3.80;54.30;100922.44;19948059;29;20534;-86
2023/03/28 21:28:25;;;;;;;1.80;1.40;;;;;;;3.59;56.92;100915.22;19958303;29;20260;-84
2023/03/28 21:38:27;;;;;;;3.60;1.57;;;;;;;3.50;58.23;100906.56;19945216;29;20220;-83
2023/03/28 21:48:30;;;;;;;4.03;1.20;;;;;;;3.29;59.77;100899.31;19966714;29;20298;-86
2023/03/28 21:58:33;;;;;;;2.50;1.20;;;;;;;3.01;60.48;100895.97;19957591;29;20208;-83
2023/03/28 22:08:35;;;;;;;4.87;1.90;;;;;;;3.69;58.91;100876.94;19941926;29;20277;-82
2023/03/28 22:18:40;;;;;;;3.37;1.73;;;;;;;2.98;61.15;100865.84;19931248;29;20231;-83
2023/03/28 22:28:43;;;;;;;2.27;1.57;;;;;;;3.19;60.88;100854.69;19945291;29;20698;-82
2023/03/28 22:38:45;;;;;;;2.60;1.60;;;;;;;3.15;61.29;100849.66;19934907;29;20200;-84
2023/03/28 22:48:53;;;;;;;2.77;1.43;;;;;;;3.30;60.56;100828.44;19936895;29;20224;-84
2023/03/28 22:58:59;;;;;;;1.90;1.60;;;;;;;3.24;60.55;100818.41;19950758;29;20272;-83
2023/03/28 23:09:07;;;;;;;3.00;1.33;;;;;;;3.46;60.07;100804.97;19923470;29;20231;-83
2023/03/28 23:19:09;;;;;;;1.73;1.40;;;;;;;3.85;59.20;100791.97;19954922;29;20228;-81
2023/03/28 23:29:12;;;;;;;1.50;1.10;;;;;;;3.13;59.85;100773.78;19947670;29;20276;-82
2023/03/28 23:39:14;;;;;;;3.33;1.40;;;;;;;3.37;58.73;100745.25;19941666;29;20237;-84
2023/03/28 23:49:16;;;;;;;1.80;1.53;;;;;;;2.83;59.23;100712.47;19928888;29;20508;-82
2023/03/28 23:59:19;;;;;;;1.70;1.40;;;;;;;3.35;57.49;100703.69;19949814;29;20203;-82
